sensor_id;sensor_type;location;lat;lon;timestamp;pressure;altitude;pressure_sealevel;temperature;humidity
24336;BME280;33098;52.400;16.880;2022-08-03T00:02:00;100897.76;;;21.93;59.13
24336;BME280;33098;52.400;16.880;2022-08-03T00:04:29;100898.55;;;21.92;59.12
24336;BME280;33098;52.400;16.880;2022-08-03T00:06:55;100902.61;;;21.87;59.17
24336;BME280;33098;52.400;16.880;2022-08-03T00:09:22;100904.19;;;21.83;59.29
24336;BME280;33098;52.400;16.880;2022-08-03T00:11:48;100902.11;;;21.84;59.34
24336;BME280;33098;52.400;16.880;2022-08-03T00:14:15;100898.86;;;21.81;59.53
24336;BME280;33098;52.400;16.880;2022-08-03T00:16:41;100901.59;;;21.75;59.58
24336;BME280;33098;52.400;16.880;2022-08-03T00:19:11;100896.13;;;21.74;59.63
24336;BME280;33098;52.400;16.880;2022-08-03T00:21:37;100898.83;;;21.69;59.60
24336;BME280;33098;52.400;16.880;2022-08-03T00:24:04;100898.38;;;21.65;59.71
24336;BME280;33098;52.400;16.880;2022-08-03T00:26:31;100899.70;;;21.58;59.93
24336;BME280;33098;52.400;16.880;2022-08-03T00:28:58;100896.13;;;21.55;60.04
24336;BME280;33098;52.400;16.880;2022-08-03T00:31:24;100898.73;;;21.50;60.20
24336;BME280;33098;52.400;16.880;2022-08-03T00:33:51;100900.96;;;21.49;60.38
24336;BME280;33098;52.400;16.880;2022-08-03T00:36:17;100900.66;;;21.47;60.61
24336;BME280;33098;52.400;16.880;2022-08-03T00:38:44;100901.60;;;21.45;60.61
24336;BME280;33098;52.400;16.880;2022-08-03T00:41:10;100902.10;;;21.46;60.83
24336;BME280;33098;52.400;16.880;2022-08-03T00:43:37;100899.23;;;21.42;60.86
24336;BME280;33098;52.400;16.880;2022-08-03T00:46:03;100894.94;;;21.37;60.99
24336;BME280;33098;52.400;16.880;2022-08-03T00:48:31;100897.93;;;21.28;61.22
24336;BME280;33098;52.400;16.880;2022-08-03T00:50:57;100898.89;;;21.23;61.24
24336;BME280;33098;52.400;16.880;2022-08-03T00:53:24;100894.77;;;21.21;61.62
24336;BME280;33098;52.400;16.880;2022-08-03T00:55:52;100892.27;;;21.20;61.70
24336;BME280;33098;52.400;16.880;2022-08-03T00:58:19;100893.84;;;21.19;61.73
24336;BME280;33098;52.400;16.880;2022-08-03T01:00:45;100891.57;;;21.15;61.86
24336;BME280;33098;52.400;16.880;2022-08-03T01:03:12;100892.05;;;21.14;62.24
24336;BME280;33098;52.400;16.880;2022-08-03T01:08:22;100891.88;;;21.11;62.37
24336;BME280;33098;52.400;16.880;2022-08-03T01:11:09;100886.63;;;21.09;62.67
24336;BME280;33098;52.400;16.880;2022-08-03T01:16:46;100884.36;;;21.09;62.71
24336;BME280;33098;52.400;16.880;2022-08-03T01:25:05;100882.13;;;21.03;63.10
24336;BME280;33098;52.400;16.880;2022-08-03T01:30:42;100875.77;;;21.02;63.15
24336;BME280;33098;52.400;16.880;2022-08-03T01:33:28;100872.55;;;21.04;63.26
24336;BME280;33098;52.400;16.880;2022-08-03T01:36:02;100870.97;;;21.07;63.11
24336;BME280;33098;52.400;16.880;2022-08-03T01:38:40;100872.63;;;21.09;63.10
24336;BME280;33098;52.400;16.880;2022-08-03T01:41:16;100870.04;;;21.12;63.33
24336;BME280;33098;52.400;16.880;2022-08-03T01:43:45;100868.79;;;21.17;63.29
24336;BME280;33098;52.400;16.880;2022-08-03T01:46:16;100869.94;;;21.19;63.08
24336;BME280;33098;52.400;16.880;2022-08-03T01:48:45;100865.84;;;21.25;63.06
24336;BME280;33098;52.400;16.880;2022-08-03T01:51:14;100864.29;;;21.34;63.19
24336;BME280;33098;52.400;16.880;2022-08-03T01:53:42;100861.71;;;21.42;63.00
24336;BME280;33098;52.400;16.880;2022-08-03T01:56:11;100863.92;;;21.49;62.80
24336;BME280;33098;52.400;16.880;2022-08-03T01:58:39;100862.39;;;21.56;62.67
24336;BME280;33098;52.400;16.880;2022-08-03T02:01:10;100860.90;;;21.61;62.61
24336;BME280;33098;52.400;16.880;2022-08-03T02:03:43;100867.45;;;21.61;62.38
24336;BME280;33098;52.400;16.880;2022-08-03T02:06:14;100865.22;;;21.60;62.20
24336;BME280;33098;52.400;16.880;2022-08-03T02:08:44;100860.86;;;21.59;62.33
24336;BME280;33098;52.400;16.880;2022-08-03T02:11:11;100860.07;;;21.62;61.99
24336;BME280;33098;52.400;16.880;2022-08-03T02:13:39;100859.42;;;21.64;61.90
24336;BME280;33098;52.400;16.880;2022-08-03T02:16:06;100855.20;;;21.62;61.94
24336;BME280;33098;52.400;16.880;2022-08-03T02:18:36;100851.08;;;21.65;62.02
24336;BME280;33098;52.400;16.880;2022-08-03T02:21:06;100847.21;;;21.68;61.84
24336;BME280;33098;52.400;16.880;2022-08-03T02:23:36;100846.47;;;21.68;61.71
24336;BME280;33098;52.400;16.880;2022-08-03T02:26:06;100844.13;;;21.68;61.63
24336;BME280;33098;52.400;16.880;2022-08-03T02:28:36;100846.14;;;21.71;61.57
24336;BME280;33098;52.400;16.880;2022-08-03T02:31:06;100844.90;;;21.73;61.60
24336;BME280;33098;52.400;16.880;2022-08-03T02:33:37;100847.97;;;21.68;61.29
24336;BME280;33098;52.400;16.880;2022-08-03T02:36:07;100844.50;;;21.62;61.38
24336;BME280;33098;52.400;16.880;2022-08-03T02:38:38;100844.87;;;21.59;61.41
24336;BME280;33098;52.400;16.880;2022-08-03T02:41:08;100838.36;;;21.59;61.40
24336;BME280;33098;52.400;16.880;2022-08-03T02:43:39;100840.89;;;21.56;61.58
24336;BME280;33098;52.400;16.880;2022-08-03T02:46:06;100834.81;;;21.54;61.68
24336;BME280;33098;52.400;16.880;2022-08-03T02:48:36;100839.06;;;21.50;61.56
24336;BME280;33098;52.400;16.880;2022-08-03T02:51:06;100840.23;;;21.53;61.64
24336;BME280;33098;52.400;16.880;2022-08-03T02:53:35;100839.11;;;21.62;61.81
24336;BME280;33098;52.400;16.880;2022-08-03T02:56:02;100838.89;;;21.72;61.79
24336;BME280;33098;52.400;16.880;2022-08-03T02:58:31;100841.86;;;21.77;61.63
24336;BME280;33098;52.400;16.880;2022-08-03T03:00:59;100840.66;;;21.75;61.33
24336;BME280;33098;52.400;16.880;2022-08-03T03:03:25;100841.55;;;21.77;61.37
24336;BME280;33098;52.400;16.880;2022-08-03T03:05:53;100841.00;;;21.77;61.33
24336;BME280;33098;52.400;16.880;2022-08-03T03:08:21;100842.24;;;21.76;61.47
24336;BME280;33098;52.400;16.880;2022-08-03T03:10:48;100841.02;;;21.77;61.39
24336;BME280;33098;52.400;16.880;2022-08-03T03:13:16;100842.89;;;21.71;61.36
24336;BME280;33098;52.400;16.880;2022-08-03T03:15:44;100845.14;;;21.70;61.44
24336;BME280;33098;52.400;16.880;2022-08-03T03:18:11;100847.77;;;21.64;61.41
24336;BME280;33098;52.400;16.880;2022-08-03T03:20:39;100848.42;;;21.60;61.42
24336;BME280;33098;52.400;16.880;2022-08-03T03:23:07;100846.55;;;21.57;61.65
24336;BME280;33098;52.400;16.880;2022-08-03T03:25:35;100849.73;;;21.64;61.88
24336;BME280;33098;52.400;16.880;2022-08-03T03:28:03;100849.09;;;21.68;61.74
24336;BME280;33098;52.400;16.880;2022-08-03T03:30:29;100849.06;;;21.66;61.76
24336;BME280;33098;52.400;16.880;2022-08-03T03:32:57;100848.61;;;21.61;61.83
24336;BME280;33098;52.400;16.880;2022-08-03T03:35:25;100848.12;;;21.56;62.00
24336;BME280;33098;52.400;16.880;2022-08-03T03:37:53;100847.42;;;21.58;62.25
24336;BME280;33098;52.400;16.880;2022-08-03T03:40:21;100846.57;;;21.59;62.06
24336;BME280;33098;52.400;16.880;2022-08-03T03:42:48;100853.63;;;21.62;62.16
24336;BME280;33098;52.400;16.880;2022-08-03T03:45:15;100853.42;;;21.65;62.12
24336;BME280;33098;52.400;16.880;2022-08-03T03:47:43;100859.03;;;21.62;62.17
24336;BME280;33098;52.400;16.880;2022-08-03T03:50:09;100859.60;;;21.50;62.31
24336;BME280;33098;52.400;16.880;2022-08-03T03:52:36;100859.89;;;21.47;62.33
24336;BME280;33098;52.400;16.880;2022-08-03T03:55:03;100862.70;;;21.55;62.59
24336;BME280;33098;52.400;16.880;2022-08-03T03:57:30;100864.79;;;21.56;62.73
24336;BME280;33098;52.400;16.880;2022-08-03T03:59:56;100862.27;;;21.52;62.59
24336;BME280;33098;52.400;16.880;2022-08-03T04:02:23;100864.44;;;21.51;62.68
24336;BME280;33098;52.400;16.880;2022-08-03T04:04:50;100865.19;;;21.52;62.97
24336;BME280;33098;52.400;16.880;2022-08-03T04:07:45;100867.23;;;21.48;62.82
24336;BME280;33098;52.400;16.880;2022-08-03T04:10:34;100866.88;;;21.34;63.11
24336;BME280;33098;52.400;16.880;2022-08-03T04:13:21;100868.76;;;21.30;63.22
24336;BME280;33098;52.400;16.880;2022-08-03T04:15:49;100871.12;;;21.34;63.61
24336;BME280;33098;52.400;16.880;2022-08-03T04:18:18;100875.89;;;21.44;63.56
24336;BME280;33098;52.400;16.880;2022-08-03T04:20:46;100874.88;;;21.51;63.49
24336;BME280;33098;52.400;16.880;2022-08-03T04:23:15;100880.52;;;21.59;63.47
24336;BME280;33098;52.400;16.880;2022-08-03T04:25:44;100880.89;;;21.58;63.37
24336;BME280;33098;52.400;16.880;2022-08-03T04:28:12;100883.38;;;21.59;63.40
24336;BME280;33098;52.400;16.880;2022-08-03T04:30:45;100877.63;;;21.54;63.34
24336;BME280;33098;52.400;16.880;2022-08-03T04:33:15;100882.96;;;21.55;63.61
24336;BME280;33098;52.400;16.880;2022-08-03T04:35:43;100885.45;;;21.61;63.75
24336;BME280;33098;52.400;16.880;2022-08-03T04:38:13;100884.73;;;21.66;63.54
24336;BME280;33098;52.400;16.880;2022-08-03T04:40:42;100887.11;;;21.68;63.67
24336;BME280;33098;52.400;16.880;2022-08-03T04:43:13;100887.79;;;21.77;63.79
24336;BME280;33098;52.400;16.880;2022-08-03T04:45:42;100885.91;;;21.82;63.78
24336;BME280;33098;52.400;16.880;2022-08-03T04:48:13;100887.30;;;21.85;63.53
24336;BME280;33098;52.400;16.880;2022-08-03T04:50:41;100885.16;;;21.85;63.50
24336;BME280;33098;52.400;16.880;2022-08-03T04:53:08;100885.71;;;21.88;63.70
24336;BME280;33098;52.400;16.880;2022-08-03T04:55:35;100880.27;;;21.94;63.48
24336;BME280;33098;52.400;16.880;2022-08-03T04:58:02;100881.65;;;22.01;63.60
24336;BME280;33098;52.400;16.880;2022-08-03T05:00:29;100876.74;;;22.05;63.57
24336;BME280;33098;52.400;16.880;2022-08-03T05:02:56;100876.64;;;22.10;63.33
24336;BME280;33098;52.400;16.880;2022-08-03T05:05:23;100877.00;;;22.11;63.48
24336;BME280;33098;52.400;16.880;2022-08-03T05:07:50;100877.41;;;22.16;63.28
24336;BME280;33098;52.400;16.880;2022-08-03T05:10:17;100876.98;;;22.06;63.20
24336;BME280;33098;52.400;16.880;2022-08-03T05:12:46;100880.10;;;22.06;63.31
24336;BME280;33098;52.400;16.880;2022-08-03T05:15:13;100878.16;;;22.11;63.37
24336;BME280;33098;52.400;16.880;2022-08-03T05:17:40;100876.45;;;22.17;63.34
24336;BME280;33098;52.400;16.880;2022-08-03T05:20:07;100878.30;;;22.15;63.36
24336;BME280;33098;52.400;16.880;2022-08-03T05:22:34;100875.56;;;22.10;63.33
24336;BME280;33098;52.400;16.880;2022-08-03T05:25:01;100883.66;;;22.05;63.77
24336;BME280;33098;52.400;16.880;2022-08-03T05:27:28;100888.34;;;22.05;63.76
24336;BME280;33098;52.400;16.880;2022-08-03T05:29:54;100892.34;;;22.11;63.88
24336;BME280;33098;52.400;16.880;2022-08-03T05:32:21;100891.25;;;22.13;63.76
24336;BME280;33098;52.400;16.880;2022-08-03T05:34:47;100893.19;;;22.09;63.97
24336;BME280;33098;52.400;16.880;2022-08-03T05:37:14;100899.64;;;22.13;63.93
24336;BME280;33098;52.400;16.880;2022-08-03T05:39:42;100898.20;;;22.09;64.07
24336;BME280;33098;52.400;16.880;2022-08-03T05:42:09;100901.26;;;22.04;64.06
24336;BME280;33098;52.400;16.880;2022-08-03T05:44:35;100899.63;;;21.98;64.15
24336;BME280;33098;52.400;16.880;2022-08-03T05:47:04;100898.95;;;22.00;64.39
24336;BME280;33098;52.400;16.880;2022-08-03T05:49:32;100895.42;;;22.02;64.52
24336;BME280;33098;52.400;16.880;2022-08-03T05:51:58;100897.52;;;22.10;64.51
24336;BME280;33098;52.400;16.880;2022-08-03T05:54:25;100896.77;;;22.19;64.63
24336;BME280;33098;52.400;16.880;2022-08-03T05:56:52;100897.48;;;22.33;64.72
24336;BME280;33098;52.400;16.880;2022-08-03T05:59:18;100903.59;;;22.47;64.51
24336;BME280;33098;52.400;16.880;2022-08-03T06:01:45;100903.01;;;22.59;64.70
24336;BME280;33098;52.400;16.880;2022-08-03T06:04:14;100905.11;;;22.67;64.32
24336;BME280;33098;52.400;16.880;2022-08-03T06:06:41;100904.86;;;22.67;64.25
24336;BME280;33098;52.400;16.880;2022-08-03T06:09:09;100906.63;;;22.81;64.30
24336;BME280;33098;52.400;16.880;2022-08-03T06:11:36;100910.59;;;22.96;64.06
24336;BME280;33098;52.400;16.880;2022-08-03T06:14:02;100910.34;;;23.07;64.01
24336;BME280;33098;52.400;16.880;2022-08-03T06:16:31;100908.83;;;23.16;63.75
24336;BME280;33098;52.400;16.880;2022-08-03T06:18:57;100907.07;;;23.23;63.58
24336;BME280;33098;52.400;16.880;2022-08-03T06:21:26;100908.98;;;23.31;63.35
24336;BME280;33098;52.400;16.880;2022-08-03T06:23:53;100911.08;;;23.36;63.16
24336;BME280;33098;52.400;16.880;2022-08-03T06:26:19;100908.96;;;23.42;63.07
24336;BME280;33098;52.400;16.880;2022-08-03T06:28:46;100906.63;;;23.51;63.02
24336;BME280;33098;52.400;16.880;2022-08-03T06:31:14;100906.34;;;23.53;62.83
24336;BME280;33098;52.400;16.880;2022-08-03T06:33:40;100903.27;;;23.53;62.60
24336;BME280;33098;52.400;16.880;2022-08-03T06:36:07;100902.48;;;23.61;62.37
24336;BME280;33098;52.400;16.880;2022-08-03T06:38:33;100902.69;;;23.69;62.63
24336;BME280;33098;52.400;16.880;2022-08-03T06:41:00;100903.34;;;23.79;62.42
24336;BME280;33098;52.400;16.880;2022-08-03T06:43:26;100903.36;;;23.82;62.07
24336;BME280;33098;52.400;16.880;2022-08-03T06:45:53;100900.71;;;23.81;61.85
24336;BME280;33098;52.400;16.880;2022-08-03T06:48:19;100908.91;;;23.79;61.86
24336;BME280;33098;52.400;16.880;2022-08-03T06:50:46;100907.73;;;23.80;61.81
24336;BME280;33098;52.400;16.880;2022-08-03T06:53:12;100911.02;;;23.77;61.57
24336;BME280;33098;52.400;16.880;2022-08-03T06:55:39;100910.10;;;23.77;61.60
24336;BME280;33098;52.400;16.880;2022-08-03T06:58:05;100909.16;;;23.80;61.50
24336;BME280;33098;52.400;16.880;2022-08-03T07:00:32;100910.30;;;23.91;61.53
24336;BME280;33098;52.400;16.880;2022-08-03T07:02:58;100906.65;;;24.23;61.46
24336;BME280;33098;52.400;16.880;2022-08-03T07:05:25;100905.29;;;24.52;60.93
24336;BME280;33098;52.400;16.880;2022-08-03T07:07:55;100903.23;;;24.59;60.65
24336;BME280;33098;52.400;16.880;2022-08-03T07:10:27;100903.37;;;24.60;60.25
24336;BME280;33098;52.400;16.880;2022-08-03T07:12:53;100904.36;;;24.59;60.01
24336;BME280;33098;52.400;16.880;2022-08-03T07:15:20;100905.02;;;24.58;60.04
24336;BME280;33098;52.400;16.880;2022-08-03T07:17:46;100909.09;;;24.56;59.80
24336;BME280;33098;52.400;16.880;2022-08-03T07:20:13;100911.89;;;24.54;59.76
24336;BME280;33098;52.400;16.880;2022-08-03T07:22:40;100908.38;;;24.55;60.02
24336;BME280;33098;52.400;16.880;2022-08-03T07:25:08;100910.60;;;24.60;59.80
24336;BME280;33098;52.400;16.880;2022-08-03T07:27:35;100910.18;;;24.62;59.94
24336;BME280;33098;52.400;16.880;2022-08-03T07:30:07;100914.69;;;24.63;59.90
24336;BME280;33098;52.400;16.880;2022-08-03T07:32:37;100915.16;;;24.66;59.90
24336;BME280;33098;52.400;16.880;2022-08-03T07:35:05;100918.41;;;24.68;59.89
24336;BME280;33098;52.400;16.880;2022-08-03T07:37:32;100914.48;;;24.68;59.76
24336;BME280;33098;52.400;16.880;2022-08-03T07:40:00;100916.62;;;24.69;59.70
24336;BME280;33098;52.400;16.880;2022-08-03T07:42:27;100915.58;;;24.71;59.67
24336;BME280;33098;52.400;16.880;2022-08-03T07:44:57;100916.39;;;24.76;59.70
24336;BME280;33098;52.400;16.880;2022-08-03T07:47:26;100911.25;;;24.76;59.50
24336;BME280;33098;52.400;16.880;2022-08-03T07:49:53;100913.94;;;24.79;59.43
24336;BME280;33098;52.400;16.880;2022-08-03T07:52:20;100914.79;;;24.84;59.34
24336;BME280;33098;52.400;16.880;2022-08-03T07:55:06;100917.37;;;24.86;59.26
24336;BME280;33098;52.400;16.880;2022-08-03T07:57:34;100917.23;;;24.88;59.06
24336;BME280;33098;52.400;16.880;2022-08-03T08:00:01;100913.30;;;24.89;58.93
24336;BME280;33098;52.400;16.880;2022-08-03T08:02:27;100908.17;;;24.94;58.86
24336;BME280;33098;52.400;16.880;2022-08-03T08:04:54;100908.16;;;25.04;58.78
24336;BME280;33098;52.400;16.880;2022-08-03T08:07:20;100909.59;;;25.11;58.60
24336;BME280;33098;52.400;16.880;2022-08-03T08:09:47;100907.02;;;25.15;58.62
24336;BME280;33098;52.400;16.880;2022-08-03T08:12:13;100907.55;;;25.20;58.59
24336;BME280;33098;52.400;16.880;2022-08-03T08:14:40;100904.27;;;25.25;58.49
24336;BME280;33098;52.400;16.880;2022-08-03T08:17:07;100902.67;;;25.28;58.52
24336;BME280;33098;52.400;16.880;2022-08-03T08:19:34;100905.15;;;25.33;58.43
24336;BME280;33098;52.400;16.880;2022-08-03T08:22:03;100907.65;;;25.36;58.33
24336;BME280;33098;52.400;16.880;2022-08-03T08:24:31;100905.39;;;25.40;58.34
24336;BME280;33098;52.400;16.880;2022-08-03T08:26:59;100901.88;;;25.43;58.32
24336;BME280;33098;52.400;16.880;2022-08-03T08:29:26;100900.59;;;25.48;58.50
24336;BME280;33098;52.400;16.880;2022-08-03T08:31:53;100902.67;;;25.55;58.60
24336;BME280;33098;52.400;16.880;2022-08-03T08:34:19;100902.56;;;25.62;58.31
24336;BME280;33098;52.400;16.880;2022-08-03T08:36:46;100897.91;;;25.68;58.10
24336;BME280;33098;52.400;16.880;2022-08-03T08:39:12;100898.83;;;25.73;58.10
24336;BME280;33098;52.400;16.880;2022-08-03T08:41:39;100896.98;;;25.79;58.04
24336;BME280;33098;52.400;16.880;2022-08-03T08:44:05;100896.92;;;25.81;57.80
24336;BME280;33098;52.400;16.880;2022-08-03T08:46:33;100901.71;;;25.84;57.91
24336;BME280;33098;52.400;16.880;2022-08-03T08:49:00;100897.59;;;25.88;57.68
24336;BME280;33098;52.400;16.880;2022-08-03T08:51:30;100897.63;;;25.94;57.62
24336;BME280;33098;52.400;16.880;2022-08-03T08:54:00;100896.79;;;26.03;57.58
24336;BME280;33098;52.400;16.880;2022-08-03T08:56:28;100897.42;;;26.08;57.54
24336;BME280;33098;52.400;16.880;2022-08-03T08:58:58;100898.63;;;26.13;57.42
24336;BME280;33098;52.400;16.880;2022-08-03T09:01:26;100896.68;;;26.21;57.17
24336;BME280;33098;52.400;16.880;2022-08-03T09:03:53;100902.94;;;26.26;56.96
24336;BME280;33098;52.400;16.880;2022-08-03T09:06:21;100899.75;;;26.35;56.64
24336;BME280;33098;52.400;16.880;2022-08-03T09:08:49;100903.27;;;26.39;56.24
24336;BME280;33098;52.400;16.880;2022-08-03T09:11:20;100906.02;;;26.44;55.75
24336;BME280;33098;52.400;16.880;2022-08-03T09:13:47;100905.50;;;26.49;55.52
24336;BME280;33098;52.400;16.880;2022-08-03T09:16:19;100907.45;;;26.59;55.38
24336;BME280;33098;52.400;16.880;2022-08-03T09:18:49;100905.77;;;26.66;55.51
24336;BME280;33098;52.400;16.880;2022-08-03T09:21:18;100910.14;;;26.72;55.42
24336;BME280;33098;52.400;16.880;2022-08-03T09:23:48;100905.52;;;26.79;55.10
24336;BME280;33098;52.400;16.880;2022-08-03T09:26:27;100904.34;;;26.84;54.98
24336;BME280;33098;52.400;16.880;2022-08-03T09:28:59;100901.89;;;26.93;54.76
24336;BME280;33098;52.400;16.880;2022-08-03T09:31:44;100895.48;;;27.00;54.87
24336;BME280;33098;52.400;16.880;2022-08-03T09:34:13;100900.27;;;27.05;54.73
24336;BME280;33098;52.400;16.880;2022-08-03T09:36:43;100897.58;;;27.13;54.34
24336;BME280;33098;52.400;16.880;2022-08-03T09:39:12;100899.30;;;27.18;54.04
24336;BME280;33098;52.400;16.880;2022-08-03T09:41:42;100893.84;;;27.26;53.62
24336;BME280;33098;52.400;16.880;2022-08-03T09:44:09;100893.38;;;27.31;53.36
24336;BME280;33098;52.400;16.880;2022-08-03T09:46:49;100891.14;;;27.32;53.11
24336;BME280;33098;52.400;16.880;2022-08-03T09:49:16;100890.86;;;27.36;52.94
24336;BME280;33098;52.400;16.880;2022-08-03T09:51:44;100891.40;;;27.46;52.94
24336;BME280;33098;52.400;16.880;2022-08-03T09:54:10;100886.42;;;27.52;52.78
24336;BME280;33098;52.400;16.880;2022-08-03T09:56:45;100884.54;;;27.63;52.77
24336;BME280;33098;52.400;16.880;2022-08-03T09:59:21;100880.94;;;27.74;52.52
24336;BME280;33098;52.400;16.880;2022-08-03T10:01:48;100880.98;;;27.84;52.40
24336;BME280;33098;52.400;16.880;2022-08-03T10:04:15;100877.98;;;27.93;52.11
24336;BME280;33098;52.400;16.880;2022-08-03T10:06:45;100882.31;;;28.02;52.10
24336;BME280;33098;52.400;16.880;2022-08-03T10:09:26;100884.24;;;28.09;51.40
24336;BME280;33098;52.400;16.880;2022-08-03T10:11:53;100880.81;;;28.18;51.11
24336;BME280;33098;52.400;16.880;2022-08-03T10:14:20;100880.32;;;28.26;50.38
24336;BME280;33098;52.400;16.880;2022-08-03T10:16:48;100878.12;;;28.33;49.83
24336;BME280;33098;52.400;16.880;2022-08-03T10:19:15;100870.11;;;28.42;49.41
24336;BME280;33098;52.400;16.880;2022-08-03T10:21:58;100869.73;;;28.46;49.59
24336;BME280;33098;52.400;16.880;2022-08-03T10:24:28;100867.71;;;28.62;49.85
24336;BME280;33098;52.400;16.880;2022-08-03T10:27:00;100866.80;;;28.75;49.38
24336;BME280;33098;52.400;16.880;2022-08-03T10:29:34;100871.52;;;28.88;48.59
24336;BME280;33098;52.400;16.880;2022-08-03T10:32:03;100868.56;;;29.03;48.69
24336;BME280;33098;52.400;16.880;2022-08-03T10:34:36;100866.86;;;29.09;48.41
24336;BME280;33098;52.400;16.880;2022-08-03T10:37:08;100867.75;;;29.11;48.21
24336;BME280;33098;52.400;16.880;2022-08-03T10:39:36;100860.09;;;29.16;47.56
24336;BME280;33098;52.400;16.880;2022-08-03T10:42:05;100861.42;;;29.23;47.68
24336;BME280;33098;52.400;16.880;2022-08-03T10:44:35;100863.15;;;29.30;46.99
24336;BME280;33098;52.400;16.880;2022-08-03T10:47:03;100864.88;;;29.35;46.65
24336;BME280;33098;52.400;16.880;2022-08-03T10:49:31;100863.29;;;29.37;46.63
24336;BME280;33098;52.400;16.880;2022-08-03T10:51:58;100862.13;;;29.44;45.85
24336;BME280;33098;52.400;16.880;2022-08-03T10:54:38;100858.02;;;29.49;46.37
24336;BME280;33098;52.400;16.880;2022-08-03T10:57:50;100856.84;;;29.59;45.62
24336;BME280;33098;52.400;16.880;2022-08-03T11:00:20;100858.27;;;29.73;45.60
24336;BME280;33098;52.400;16.880;2022-08-03T11:03:07;100856.63;;;29.85;45.52
24336;BME280;33098;52.400;16.880;2022-08-03T11:05:42;100857.73;;;30.02;44.17
24336;BME280;33098;52.400;16.880;2022-08-03T11:08:22;100861.36;;;30.15;42.13
24336;BME280;33098;52.400;16.880;2022-08-03T11:10:50;100858.04;;;30.21;43.05
24336;BME280;33098;52.400;16.880;2022-08-03T11:13:19;100856.23;;;30.25;43.47
24336;BME280;33098;52.400;16.880;2022-08-03T11:15:48;100851.52;;;30.30;43.67
24336;BME280;33098;52.400;16.880;2022-08-03T11:18:16;100848.25;;;30.34;43.02
24336;BME280;33098;52.400;16.880;2022-08-03T11:20:47;100848.84;;;30.46;43.49
24336;BME280;33098;52.400;16.880;2022-08-03T11:23:16;100850.61;;;30.55;41.85
24336;BME280;33098;52.400;16.880;2022-08-03T11:26:09;100850.64;;;30.73;40.63
24336;BME280;33098;52.400;16.880;2022-08-03T11:28:36;100846.23;;;30.85;41.97
24336;BME280;33098;52.400;16.880;2022-08-03T11:34:09;100844.27;;;31.01;41.32
24336;BME280;33098;52.400;16.880;2022-08-03T11:39:45;100836.58;;;31.15;41.22
24336;BME280;33098;52.400;16.880;2022-08-03T11:44:52;100836.75;;;31.43;39.18
24336;BME280;33098;52.400;16.880;2022-08-03T11:47:21;100841.50;;;31.55;38.48
24336;BME280;33098;52.400;16.880;2022-08-03T11:49:50;100837.89;;;31.63;38.99
24336;BME280;33098;52.400;16.880;2022-08-03T11:52:18;100840.73;;;31.74;39.34
24336;BME280;33098;52.400;16.880;2022-08-03T11:54:49;100836.02;;;31.80;39.60
24336;BME280;33098;52.400;16.880;2022-08-03T11:57:28;100834.29;;;31.96;39.47
24336;BME280;33098;52.400;16.880;2022-08-03T11:59:55;100831.60;;;32.04;39.38
24336;BME280;33098;52.400;16.880;2022-08-03T12:02:21;100830.91;;;32.16;38.77
24336;BME280;33098;52.400;16.880;2022-08-03T12:04:50;100828.65;;;32.31;38.40
24336;BME280;33098;52.400;16.880;2022-08-03T12:07:17;100825.13;;;32.50;37.88
24336;BME280;33098;52.400;16.880;2022-08-03T12:10:13;100824.12;;;32.70;37.34
24336;BME280;33098;52.400;16.880;2022-08-03T12:12:40;100820.46;;;32.84;36.41
24336;BME280;33098;52.400;16.880;2022-08-03T12:15:08;100826.83;;;32.97;36.19
24336;BME280;33098;52.400;16.880;2022-08-03T12:17:36;100818.05;;;33.09;36.57
24336;BME280;33098;52.400;16.880;2022-08-03T12:20:05;100815.77;;;33.20;36.37
24336;BME280;33098;52.400;16.880;2022-08-03T12:22:35;100813.70;;;33.33;36.97
24336;BME280;33098;52.400;16.880;2022-08-03T12:25:07;100812.01;;;33.37;37.09
24336;BME280;33098;52.400;16.880;2022-08-03T12:27:35;100812.05;;;33.43;36.78
24336;BME280;33098;52.400;16.880;2022-08-03T12:30:02;100804.65;;;33.51;36.94
24336;BME280;33098;52.400;16.880;2022-08-03T12:32:30;100806.16;;;33.55;37.02
24336;BME280;33098;52.400;16.880;2022-08-03T12:34:57;100803.89;;;33.60;36.42
24336;BME280;33098;52.400;16.880;2022-08-03T12:37:26;100809.52;;;33.71;35.76
24336;BME280;33098;52.400;16.880;2022-08-03T12:39:55;100802.77;;;33.83;35.16
24336;BME280;33098;52.400;16.880;2022-08-03T12:42:29;100797.30;;;33.93;35.34
24336;BME280;33098;52.400;16.880;2022-08-03T12:44:56;100802.00;;;34.09;34.88
24336;BME280;33098;52.400;16.880;2022-08-03T12:47:22;100803.27;;;34.26;34.72
24336;BME280;33098;52.400;16.880;2022-08-03T12:49:52;100800.95;;;34.37;33.08
24336;BME280;33098;52.400;16.880;2022-08-03T12:52:21;100794.27;;;34.40;33.58
24336;BME280;33098;52.400;16.880;2022-08-03T12:54:59;100788.45;;;34.64;33.89
24336;BME280;33098;52.400;16.880;2022-08-03T12:57:39;100788.33;;;34.83;33.96
24336;BME280;33098;52.400;16.880;2022-08-03T13:00:14;100783.43;;;34.90;34.02
24336;BME280;33098;52.400;16.880;2022-08-03T13:02:41;100782.59;;;35.12;33.49
24336;BME280;33098;52.400;16.880;2022-08-03T13:05:13;100791.87;;;35.26;32.70
24336;BME280;33098;52.400;16.880;2022-08-03T13:07:41;100786.27;;;35.36;33.31
24336;BME280;33098;52.400;16.880;2022-08-03T13:10:09;100785.31;;;35.53;33.41
24336;BME280;33098;52.400;16.880;2022-08-03T13:12:48;100781.39;;;35.75;33.09
24336;BME280;33098;52.400;16.880;2022-08-03T13:15:15;100782.02;;;35.88;32.35